Time;durP1;ratioP1;P1;durP2;ratioP2;P2;SDS_P1;SDS_P2;PMS_P1;PMS_P2;Temp;Humidity;BMP_temperature;BMP_pressure;BME280_temperature;BME280_humidity;BME280_pressure;Samples;Min_cycle;Max_cycle;Signal;HPM_P1;HPM_P2
2023/08/27 00:00:32;;;;;;;2.78;1.60;;;17.50;99.90;;;17.87;100.00;100429.69;5243532;28;20052;-51
2023/08/27 00:03:06;;;;;;;2.03;1.33;;;17.50;99.90;;;17.88;100.00;100434.94;5245005;28;20098;-50
2023/08/27 00:05:44;;;;;;;2.60;1.40;;;17.50;99.90;;;17.88;100.00;100428.81;5243277;28;20070;-51
2023/08/27 00:08:16;;;;;;;2.58;1.40;;;17.50;99.90;;;17.87;100.00;100433.19;5243553;28;20424;-51
2023/08/27 00:10:48;;;;;;;2.00;1.40;;;17.50;99.90;;;17.85;100.00;100428.78;5243708;28;20071;-50
2023/08/27 00:13:21;;;;;;;1.73;1.33;;;17.50;99.90;;;17.82;100.00;100419.13;5243534;28;20060;-51
2023/08/27 00:15:53;;;;;;;2.03;1.40;;;17.40;99.90;;;17.81;100.00;100414.75;5243184;28;20052;-51
2023/08/27 00:18:26;;;;;;;1.75;1.15;;;17.40;99.90;;;17.81;100.00;100401.56;5243788;28;20056;-52
2023/08/27 00:21:00;;;;;;;2.00;1.33;;;17.40;99.90;;;17.80;100.00;100393.63;5243097;28;20048;-50
2023/08/27 00:23:32;;;;;;;1.90;1.30;;;17.50;99.90;;;17.79;100.00;100366.38;5243138;28;20053;-52
2023/08/27 00:26:08;;;;;;;1.48;1.30;;;17.40;99.90;;;17.77;100.00;100365.53;5243010;28;20052;-51
2023/08/27 00:28:40;;;;;;;2.25;1.23;;;17.40;99.90;;;17.75;100.00;100375.19;5243184;28;20052;-52
2023/08/27 00:31:12;;;;;;;2.50;1.48;;;17.40;99.90;;;17.74;100.00;100377.84;5242846;28;20132;-51
2023/08/27 00:33:45;;;;;;;1.33;1.13;;;17.40;99.90;;;17.71;100.00;100367.25;5243169;28;20095;-51
2023/08/27 00:36:18;;;;;;;1.75;1.20;;;17.40;99.90;;;17.69;100.00;100359.34;5243054;28;20063;-51
2023/08/27 00:38:51;;;;;;;1.55;1.02;;;17.30;99.90;;;17.64;100.00;100356.72;5243180;28;20443;-52
2023/08/27 00:41:23;;;;;;;1.38;1.17;;;17.30;99.90;;;17.59;100.00;100353.19;5243179;28;20417;-51
2023/08/27 00:43:59;;;;;;;2.22;1.10;;;17.20;99.90;;;17.55;100.00;100340.94;5242399;28;20541;-53
2023/08/27 00:46:31;;;;;;;1.30;1.20;;;17.20;99.90;;;17.51;100.00;100344.44;5243035;28;20057;-51
2023/08/27 00:49:04;;;;;;;2.13;0.93;;;17.20;99.90;;;17.46;100.00;100356.72;5242883;28;20044;-51
2023/08/27 00:51:39;;;;;;;1.88;1.40;;;17.10;99.90;;;17.42;100.00;100348.84;5242927;28;20113;-51
2023/08/27 00:54:12;;;;;;;1.52;1.15;;;17.10;99.90;;;17.38;100.00;100349.72;5242527;28;20143;-52
2023/08/27 00:56:46;;;;;;;2.60;1.25;;;17.00;99.90;;;17.32;100.00;100353.22;5242599;28;20040;-50
2023/08/27 00:59:18;;;;;;;1.98;1.30;;;17.00;99.90;;;17.27;100.00;100350.56;5242577;28;20045;-51
2023/08/27 01:01:53;;;;;;;1.67;1.10;;;16.90;99.90;;;17.24;100.00;100370.78;5242627;28;20063;-54
2023/08/27 01:04:26;;;;;;;1.63;1.10;;;16.90;99.90;;;17.21;100.00;100376.03;5242410;28;20041;-52
2023/08/27 01:07:10;;;;;;;2.35;1.20;;;16.90;99.90;;;17.18;100.00;100386.56;5242547;28;20040;-51
2023/08/27 01:09:47;;;;;;;1.75;1.15;;;16.80;99.90;;;17.20;100.00;100387.44;5242664;28;20048;-50
2023/08/27 01:12:31;;;;;;;1.17;1.02;;;16.90;99.90;;;17.21;100.00;100378.66;5242541;28;20052;-52
2023/08/27 01:15:06;;;;;;;2.05;1.20;;;16.90;99.90;;;17.21;100.00;100376.03;5242118;28;20053;-51
2023/08/27 01:17:39;;;;;;;1.35;1.15;;;16.90;99.90;;;17.21;100.00;100370.75;5242759;28;20055;-52
2023/08/27 01:20:12;;;;;;;1.30;1.20;;;16.90;99.90;;;17.20;100.00;100374.28;5242497;28;20052;-51
2023/08/27 01:22:46;;;;;;;1.83;1.15;;;16.90;99.90;;;17.17;100.00;100372.53;5242484;28;20521;-52
2023/08/27 01:25:22;;;;;;;2.05;1.17;;;16.80;99.90;;;17.18;100.00;100386.56;5241932;28;20044;-52
2023/08/27 01:28:00;;;;;;;2.00;1.30;;;16.80;99.90;;;17.15;100.00;100376.03;5242288;28;20048;-53
2023/08/27 01:30:40;;;;;;;1.35;1.15;;;16.80;99.90;;;17.12;100.00;100381.28;5242721;28;20045;-51
2023/08/27 01:33:18;;;;;;;1.77;1.30;;;16.80;99.90;;;17.11;100.00;100376.91;5242532;28;20147;-51
2023/08/27 01:35:51;;;;;;;2.92;1.30;;;16.80;99.90;;;17.05;100.00;100381.28;5242636;28;20455;-52
2023/08/27 01:38:25;;;;;;;1.63;1.13;;;16.80;99.90;;;17.05;100.00;100375.13;5242604;28;20041;-52
2023/08/27 01:40:57;;;;;;;1.33;1.17;;;16.70;99.90;;;17.05;100.00;100373.38;5242559;28;20053;-51
2023/08/27 01:43:29;;;;;;;1.83;1.30;;;16.70;99.90;;;17.04;100.00;100374.25;5242159;28;20049;-51
2023/08/27 01:46:03;;;;;;;2.22;1.10;;;16.70;99.90;;;17.04;100.00;100363.72;5243454;28;20550;-52
2023/08/27 01:48:35;;;;;;;1.38;1.25;;;16.70;99.90;;;17.06;100.00;100355.81;5242065;28;20040;-52
2023/08/27 01:51:08;;;;;;;1.77;1.00;;;16.70;99.90;;;17.04;100.00;100349.69;5242219;28;20513;-51
2023/08/27 01:53:41;;;;;;;1.98;1.30;;;16.70;99.90;;;17.00;100.00;100351.44;5242037;28;20048;-50
2023/08/27 01:56:18;;;;;;;1.50;1.20;;;16.70;99.90;;;16.98;100.00;100353.19;5245114;28;20607;-51
2023/08/27 01:58:50;;;;;;;1.17;1.08;;;16.70;99.90;;;16.97;100.00;100353.19;5245900;28;20040;-51
2023/08/27 02:01:23;;;;;;;1.65;1.20;;;16.70;99.90;;;16.94;100.00;100340.88;5246152;28;20072;-52
2023/08/27 02:03:56;;;;;;;2.13;1.15;;;16.60;99.90;;;16.90;100.00;100333.88;5246032;28;20056;-51
2023/08/27 02:06:28;;;;;;;1.30;1.20;;;16.60;99.90;;;16.87;100.00;100341.75;5245829;28;20044;-51
2023/08/27 02:09:03;;;;;;;3.85;1.30;;;16.60;99.90;;;16.85;100.00;100348.78;5245769;28;20092;-52
2023/08/27 02:11:36;;;;;;;4.22;1.52;;;16.50;99.90;;;16.85;100.00;100343.50;5245688;28;20074;-53
2023/08/27 02:14:12;;;;;;;1.75;1.20;;;16.50;99.90;;;16.86;100.00;100344.38;5245515;28;20110;-51
2023/08/27 02:16:44;;;;;;;1.67;1.00;;;16.50;99.90;;;16.87;100.00;100354.03;5245459;28;20055;-52
2023/08/27 02:19:16;;;;;;;1.80;1.00;;;16.60;99.90;;;16.88;100.00;100354.03;5247042;28;20063;-52
2023/08/27 02:21:51;;;;;;;1.27;0.95;;;16.50;99.90;;;16.88;100.00;100340.88;5245584;28;20048;-51
2023/08/27 02:24:28;;;;;;;1.30;1.20;;;16.50;99.90;;;16.86;100.00;100321.56;5245697;28;20512;-51
2023/08/27 02:27:00;;;;;;;2.90;1.02;;;16.50;99.90;;;16.86;100.00;100315.44;5245305;28;20044;-49
2023/08/27 02:29:33;;;;;;;1.23;1.00;;;16.50;99.90;;;16.84;100.00;100312.81;5245831;28;20060;-51
2023/08/27 02:32:07;;;;;;;1.60;1.25;;;16.50;99.90;;;16.83;100.00;100316.31;5245648;28;20419;-51
2023/08/27 02:34:39;;;;;;;1.17;1.08;;;16.50;99.90;;;16.81;100.00;100321.56;5245586;28;20570;-51
2023/08/27 02:37:11;;;;;;;1.88;1.27;;;16.50;99.90;;;16.81;100.00;100325.94;5245274;28;20581;-51
2023/08/27 02:39:45;;;;;;;2.05;1.17;;;16.50;99.90;;;16.80;100.00;100327.69;5245311;28;20516;-52
2023/08/27 02:42:21;;;;;;;1.30;1.05;;;16.50;99.90;;;16.81;100.00;100332.09;5245173;28;20532;-51
2023/08/27 02:44:53;;;;;;;1.30;1.10;;;16.50;99.90;;;16.80;100.00;100332.09;5244954;28;20546;-52
2023/08/27 02:47:26;;;;;;;1.50;1.40;;;16.50;99.90;;;16.77;100.00;100332.09;5245083;28;20501;-51
2023/08/27 02:50:00;;;;;;;3.05;1.27;;;16.50;99.90;;;16.73;100.00;100325.06;5245079;28;20519;-50
2023/08/27 02:52:35;;;;;;;1.48;1.20;;;16.40;99.90;;;16.69;100.00;100323.25;5245118;28;20056;-50
2023/08/27 02:55:10;;;;;;;1.85;1.10;;;16.40;99.90;;;16.66;100.00;100320.63;5244499;28;20138;-52
2023/08/27 02:57:43;;;;;;;1.70;1.05;;;16.40;99.90;;;16.62;100.00;100309.19;5244963;28;20060;-51
2023/08/27 03:00:16;;;;;;;1.85;1.30;;;16.30;99.90;;;16.59;100.00;100308.31;5245302;28;20126;-51
2023/08/27 03:02:48;;;;;;;1.73;1.20;;;16.30;99.90;;;16.54;100.00;100298.66;5245093;28;20135;-51
2023/08/27 03:05:21;;;;;;;1.30;1.17;;;16.30;99.90;;;16.52;100.00;100295.16;5244109;28;20463;-51
2023/08/27 03:07:53;;;;;;;1.42;1.25;;;16.20;99.90;;;16.49;100.00;100299.50;5244648;28;20532;-51
2023/08/27 03:10:32;;;;;;;1.23;1.10;;;16.20;99.90;;;16.46;100.00;100300.41;5244857;28;20130;-50
2023/08/27 03:13:04;;;;;;;1.30;1.15;;;16.20;99.90;;;16.45;100.00;100303.91;5244749;28;20386;-52
2023/08/27 03:15:37;;;;;;;1.38;1.08;;;16.10;99.90;;;16.45;100.00;100314.44;5244398;28;20118;-51
2023/08/27 03:18:19;;;;;;;1.83;1.05;;;16.10;99.90;;;16.45;100.00;100309.16;5244786;28;20048;-51
2023/08/27 03:20:53;;;;;;;1.55;1.20;;;16.10;99.90;;;16.42;100.00;100310.91;5244912;28;20414;-51
2023/08/27 03:23:25;;;;;;;1.67;1.20;;;16.10;99.90;;;16.40;100.00;100310.91;5244725;28;20159;-51
2023/08/27 03:25:59;;;;;;;2.00;1.20;;;16.10;99.90;;;16.39;100.00;100314.41;5244152;28;20098;-51
2023/08/27 03:28:34;;;;;;;2.28;1.30;;;16.10;99.90;;;16.43;100.00;100313.56;5244674;28;20041;-51
2023/08/27 03:31:07;;;;;;;2.50;1.20;;;16.10;99.90;;;16.45;100.00;100301.28;5244675;28;20094;-52
2023/08/27 03:33:39;;;;;;;1.40;1.30;;;16.10;99.90;;;16.45;100.00;100301.28;5244441;28;20136;-50
2023/08/27 03:36:14;;;;;;;1.77;1.20;;;16.20;99.90;;;16.43;100.00;100303.03;5244041;28;20109;-51
2023/08/27 03:38:46;;;;;;;1.30;0.90;;;16.10;99.90;;;16.39;100.00;100287.22;5244007;28;20070;-50
2023/08/27 03:41:20;;;;;;;1.33;1.10;;;16.10;99.90;;;16.35;100.00;100298.59;5243905;28;20056;-50
2023/08/27 03:43:52;;;;;;;1.30;1.10;;;16.00;99.90;;;16.33;100.00;100295.09;5244034;28;20527;-50
2023/08/27 03:46:27;;;;;;;1.50;1.40;;;16.00;99.90;;;16.29;100.00;100297.69;5243932;28;20409;-51
2023/08/27 03:49:01;;;;;;;1.92;1.20;;;16.00;99.90;;;16.28;100.00;100297.69;5244003;28;20056;-51
2023/08/27 03:51:34;;;;;;;1.48;1.38;;;16.00;99.90;;;16.29;100.00;100296.81;5244135;28;20064;-52
2023/08/27 03:54:07;;;;;;;2.10;1.20;;;16.00;99.90;;;16.29;100.00;100292.44;5243815;28;20094;-51
2023/08/27 03:56:44;;;;;;;1.95;1.45;;;16.00;99.90;;;16.29;100.00;100288.94;5243670;28;20452;-52
2023/08/27 03:59:17;;;;;;;1.75;1.20;;;16.00;99.90;;;16.28;100.00;100290.69;5243752;28;20045;-51
2023/08/27 04:01:51;;;;;;;1.70;1.13;;;16.00;99.90;;;16.26;100.00;100302.09;5243463;28;20056;-52
2023/08/27 04:04:24;;;;;;;1.80;1.17;;;16.00;99.90;;;16.23;100.00;100308.19;5243503;28;20044;-53
2023/08/27 04:06:57;;;;;;;1.38;1.27;;;15.90;99.90;;;16.23;100.00;100302.94;5243479;28;20056;-52
2023/08/27 04:09:29;;;;;;;1.80;1.30;;;16.00;99.90;;;16.25;100.00;100295.94;5243434;28;20052;-50
2023/08/27 04:12:03;;;;;;;1.60;1.20;;;16.00;99.90;;;16.31;100.00;100302.09;5243202;28;20048;-52
2023/08/27 04:14:36;;;;;;;1.73;1.30;;;16.00;99.90;;;16.35;100.00;100299.47;5243618;28;20417;-51
2023/08/27 04:17:08;;;;;;;1.75;1.35;;;16.00;99.90;;;16.39;100.00;100298.63;5242553;28;20052;-51
2023/08/27 04:19:40;;;;;;;2.53;1.20;;;16.10;99.90;;;16.43;100.00;100300.41;5243295;28;20118;-50
2023/08/27 04:22:13;;;;;;;1.80;1.20;;;16.10;99.90;;;16.45;100.00;100293.38;5243879;28;20044;-52
2023/08/27 04:24:45;;;;;;;1.83;1.27;;;16.20;99.90;;;16.47;100.00;100288.13;5243094;28;20048;-53
2023/08/27 04:27:19;;;;;;;1.58;1.17;;;16.20;99.90;;;16.48;100.00;100282.84;5243076;28;20532;-50
2023/08/27 04:29:53;;;;;;;2.13;1.40;;;16.20;99.90;;;16.49;100.00;100284.59;5243193;28;20044;-50
2023/08/27 04:32:28;;;;;;;1.60;1.25;;;16.20;99.90;;;16.51;100.00;100292.53;5243191;28;20083;-52
2023/08/27 04:35:01;;;;;;;1.48;1.15;;;16.20;99.90;;;16.51;100.00;100287.25;5242985;28;20052;-51
2023/08/27 04:37:33;;;;;;;1.35;1.25;;;16.20;99.90;;;16.51;100.00;100280.25;5242856;28;20090;-48
2023/08/27 04:40:08;;;;;;;1.35;1.10;;;16.20;99.90;;;16.53;100.00;100286.38;5242835;28;20059;-49
2023/08/27 04:42:43;;;;;;;2.92;1.33;;;16.30;99.90;;;16.55;100.00;100294.28;5243015;28;20045;-49
2023/08/27 04:45:15;;;;;;;1.60;1.25;;;16.30;99.90;;;16.58;100.00;100290.78;5242104;28;20045;-48
2023/08/27 04:47:48;;;;;;;1.83;1.23;;;16.30;99.90;;;16.60;100.00;100297.78;5242769;28;20059;-49
2023/08/27 04:50:22;;;;;;;3.28;1.50;;;16.30;99.90;;;16.64;100.00;100288.16;5242974;28;20135;-49
2023/08/27 04:52:55;;;;;;;1.60;1.38;;;16.30;99.90;;;16.68;100.00;100292.53;5242722;28;20135;-50
2023/08/27 04:55:27;;;;;;;1.80;1.33;;;16.30;99.90;;;16.71;100.00;100295.25;5241799;28;20041;-49
2023/08/27 04:58:01;;;;;;;1.92;1.30;;;16.40;99.90;;;16.74;100.00;100311.00;5242732;28;20054;-49
2023/08/27 05:00:38;;;;;;;1.92;1.20;;;16.40;99.90;;;16.77;100.00;100301.38;5242671;28;20064;-49
2023/08/27 05:03:10;;;;;;;2.35;1.30;;;16.50;99.90;;;16.80;100.00;100297.88;5242655;28;20501;-48
2023/08/27 05:05:43;;;;;;;1.73;1.33;;;16.50;99.90;;;16.81;100.00;100303.13;5241880;28;20068;-48
2023/08/27 05:08:15;;;;;;;2.17;1.40;;;16.50;99.90;;;16.85;100.00;100306.66;5242521;28;20044;-47
2023/08/27 05:10:47;;;;;;;2.28;1.40;;;16.60;99.90;;;16.88;100.00;100309.28;5242193;28;20052;-49
2023/08/27 05:13:21;;;;;;;1.15;1.05;;;16.60;99.90;;;16.93;100.00;100310.16;5242586;28;20226;-47
2023/08/27 05:15:54;;;;;;;1.40;1.20;;;16.60;99.90;;;16.98;100.00;100300.53;5242352;28;20057;-48
2023/08/27 05:18:27;;;;;;;1.38;1.15;;;16.70;99.90;;;17.02;100.00;100304.94;5242747;28;20041;-47
2023/08/27 05:20:59;;;;;;;1.80;1.10;;;16.70;99.90;;;17.04;100.00;100295.28;5242622;28;20048;-47
2023/08/27 05:23:32;;;;;;;1.63;1.05;;;16.70;99.90;;;17.08;100.00;100302.31;5242517;28;20048;-48
2023/08/27 05:26:05;;;;;;;1.55;1.20;;;16.80;99.90;;;17.14;100.00;100306.66;5241677;28;20748;-48
2023/08/27 05:28:38;;;;;;;1.73;1.10;;;16.80;99.90;;;17.20;100.00;100313.69;5242752;28;20051;-47
2023/08/27 05:31:11;;;;;;;1.70;1.25;;;16.80;99.90;;;17.24;100.00;100307.56;5246258;28;20067;-47
2023/08/27 05:33:43;;;;;;;1.65;1.10;;;16.90;99.90;;;17.28;100.00;100304.94;5246632;28;20055;-48
2023/08/27 05:36:16;;;;;;;2.30;1.30;;;17.00;99.90;;;17.31;100.00;100306.69;5246160;28;20060;-48
2023/08/27 05:38:49;;;;;;;2.20;1.30;;;17.00;99.90;;;17.33;100.00;100307.56;5246665;28;20049;-48
2023/08/27 05:41:23;;;;;;;1.23;1.13;;;17.00;99.90;;;17.38;100.00;100307.56;5246499;28;20054;-48
2023/08/27 05:43:57;;;;;;;1.20;1.10;;;17.10;99.90;;;17.41;100.00;100311.09;5246284;28;20048;-46
2023/08/27 05:46:29;;;;;;;2.40;1.40;;;17.10;99.90;;;17.43;100.00;100311.94;5245949;28;20090;-48
2023/08/27 05:49:02;;;;;;;2.17;1.25;;;17.10;99.90;;;17.45;100.00;100323.34;5246468;28;20090;-48
2023/08/27 05:51:36;;;;;;;2.08;1.10;;;17.20;99.90;;;17.47;100.00;100320.72;5246291;28;20054;-48
2023/08/27 05:54:08;;;;;;;1.40;1.25;;;17.20;99.90;;;17.49;100.00;100317.22;5245811;28;20402;-48
2023/08/27 05:56:44;;;;;;;1.10;1.00;;;17.20;99.90;;;17.48;100.00;100310.19;5245639;28;20505;-47
2023/08/27 05:59:18;;;;;;;1.50;1.10;;;17.20;99.90;;;17.51;100.00;100301.41;5246240;28;20509;-48
2023/08/27 06:01:51;;;;;;;2.00;1.23;;;17.20;99.90;;;17.50;100.00;100311.06;5246199;28;20505;-48
2023/08/27 06:04:25;;;;;;;1.85;1.40;;;17.20;99.90;;;17.50;100.00;100300.53;5245787;28;20185;-49
2023/08/27 06:07:00;;;;;;;2.72;1.45;;;17.20;99.90;;;17.52;100.00;100297.88;5245147;28;20041;-48
2023/08/27 06:09:32;;;;;;;2.00;1.55;;;17.20;99.90;;;17.52;100.00;100308.41;5246173;28;20693;-50
2023/08/27 06:12:06;;;;;;;1.85;1.40;;;17.20;99.90;;;17.52;100.00;100311.06;5245976;28;20135;-49
2023/08/27 06:14:44;;;;;;;2.20;1.20;;;17.30;99.90;;;17.50;100.00;100305.78;5245608;28;20402;-48
2023/08/27 06:17:16;;;;;;;3.40;1.00;;;17.20;99.90;;;17.45;100.00;100297.00;5245153;28;20076;-48
2023/08/27 06:19:49;;;;;;;1.80;1.10;;;17.20;99.90;;;17.43;100.00;100309.31;5245852;28;20094;-49
2023/08/27 06:22:21;;;;;;;1.40;1.20;;;17.20;99.90;;;17.43;100.00;100311.94;5245536;28;20555;-49
2023/08/27 06:24:57;;;;;;;1.35;1.25;;;17.20;99.90;;;17.45;100.00;100304.03;5242029;28;20041;-48
2023/08/27 06:27:29;;;;;;;2.20;1.20;;;17.20;99.90;;;17.48;100.00;100311.97;5224671;28;20043;-48
2023/08/27 06:30:03;;;;;;;2.05;1.33;;;17.20;99.90;;;17.51;100.00;100309.31;5242456;28;20036;-48
2023/08/27 06:32:39;;;;;;;1.98;1.38;;;17.20;99.90;;;17.54;100.00;100328.63;5242543;28;20497;-47
2023/08/27 06:35:12;;;;;;;1.30;1.20;;;17.30;99.90;;;17.53;100.00;100321.59;5234114;28;20037;-47
2023/08/27 06:37:45;;;;;;;2.03;1.17;;;17.20;99.90;;;17.52;100.00;100330.38;5242246;28;20044;-47
2023/08/27 06:40:18;;;;;;;2.55;1.20;;;17.30;99.90;;;17.49;100.00;100345.31;5236823;28;20036;-48
2023/08/27 06:42:55;;;;;;;2.08;1.30;;;17.30;99.90;;;17.47;100.00;100336.53;5238817;28;20049;-49
2023/08/27 06:45:30;;;;;;;2.42;1.33;;;17.20;99.90;;;17.48;100.00;100333.91;5237463;28;20041;-49
2023/08/27 06:48:03;;;;;;;2.25;1.40;;;17.20;99.90;;;17.50;100.00;100345.31;5242393;28;20405;-49
2023/08/27 06:50:39;;;;;;;2.33;1.42;;;17.30;99.90;;;17.57;100.00;100344.44;5228425;28;20123;-48
2023/08/27 06:53:12;;;;;;;1.88;1.35;;;17.30;99.90;;;17.63;100.00;100336.53;5236881;28;20037;-47
2023/08/27 06:55:44;;;;;;;1.90;1.30;;;17.30;99.90;;;17.73;100.00;100347.06;5244560;28;20060;-48
2023/08/27 06:58:17;;;;;;;1.38;1.00;;;17.40;99.90;;;17.79;100.00;100345.31;5244969;28;20049;-48
2023/08/27 07:00:52;;;;;;;1.45;1.15;;;17.40;99.90;;;17.89;100.00;100347.06;5244935;28;20049;-50
2023/08/27 07:03:25;;;;;;;1.45;1.10;;;17.60;99.90;;;18.27;100.00;100347.84;5244940;28;20048;-50
2023/08/27 07:05:57;;;;;;;1.67;1.40;;;17.90;99.90;;;18.52;100.00;100361.78;5244254;28;20513;-51
2023/08/27 07:08:30;;;;;;;1.40;1.30;;;18.20;99.90;;;18.70;100.00;100357.31;5244945;28;20135;-49
2023/08/27 07:11:03;;;;;;;1.80;1.33;;;18.40;99.90;;;18.88;100.00;100348.44;5245185;28;20044;-50
2023/08/27 07:13:35;;;;;;;3.00;1.33;;;18.50;99.90;;;19.07;100.00;100343.91;5244525;28;20047;-52
2023/08/27 07:16:09;;;;;;;1.98;1.30;;;18.70;99.90;;;19.30;100.00;100332.28;5243731;28;20048;-50
2023/08/27 07:18:41;;;;;;;2.03;1.40;;;18.90;99.90;;;19.46;100.00;100339.19;5244505;28;20040;-51
2023/08/27 07:21:14;;;;;;;1.10;1.00;;;19.10;99.90;;;19.55;100.00;100347.03;5244408;28;20576;-50
2023/08/27 07:23:46;;;;;;;4.03;1.13;;;19.20;99.90;;;19.56;100.00;100348.81;5244331;28;20113;-48
2023/08/27 07:26:19;;;;;;;1.80;1.30;;;19.20;99.90;;;19.54;100.00;100340.00;5243621;28;20055;-49
2023/08/27 07:28:58;;;;;;;4.03;1.40;;;19.20;99.90;;;19.45;100.00;100350.66;5243302;28;20512;-48
2023/08/27 07:31:31;;;;;;;1.58;1.02;;;19.10;99.90;;;19.43;100.00;100355.97;5236300;28;20046;-49
2023/08/27 07:34:04;;;;;;;2.28;1.00;;;19.10;99.90;;;19.37;100.00;100356.03;5243659;28;20528;-50
2023/08/27 07:36:36;;;;;;;1.27;1.10;;;19.10;99.90;;;19.34;100.00;100352.50;5241265;28;20051;-50
2023/08/27 07:39:08;;;;;;;0.88;0.85;;;19.10;99.90;;;19.42;100.00;100353.31;5243795;28;20501;-50
2023/08/27 07:41:41;;;;;;;1.30;0.90;;;19.10;99.90;;;19.51;100.00;100350.63;5242679;28;20048;-51
2023/08/27 07:44:14;;;;;;;1.92;1.10;;;19.10;99.90;;;19.75;100.00;100354.81;5227323;28;20055;-50
2023/08/27 07:46:47;;;;;;;1.40;1.00;;;19.30;99.90;;;20.09;100.00;100358.00;5242954;28;20072;-49
2023/08/27 07:49:20;;;;;;;1.70;1.10;;;19.50;99.90;;;20.35;100.00;100352.41;5243480;28;20505;-50
2023/08/27 07:51:54;;;;;;;1.58;1.10;;;19.70;99.90;;;20.53;100.00;100340.72;5236405;28;20049;-50
2023/08/27 07:54:27;;;;;;;2.72;0.90;;;19.90;99.90;;;20.67;100.00;100352.03;5242845;28;20135;-50
2023/08/27 07:57:00;;;;;;;1.52;1.02;;;20.00;99.90;;;20.87;100.00;100354.41;5236656;28;20417;-50
2023/08/27 07:59:33;;;;;;;2.50;1.10;;;20.20;99.90;;;21.07;100.00;100362.06;5243803;28;20045;-50
2023/08/27 08:02:07;;;;;;;1.27;1.00;;;20.30;99.90;;;21.24;100.00;100357.34;5232941;28;20032;-51
2023/08/27 08:04:40;;;;;;;2.10;1.33;;;20.50;99.90;;;21.39;100.00;100351.88;5242831;28;20040;-50
2023/08/27 08:07:12;;;;;;;1.58;0.77;;;20.60;99.90;;;21.46;100.00;100354.41;5228258;28;20051;-49
2023/08/27 08:09:44;;;;;;;1.17;0.80;;;20.70;99.90;;;21.40;100.00;100358.03;5242731;28;20150;-51
2023/08/27 08:12:17;;;;;;;1.42;0.88;;;20.70;99.90;;;21.40;100.00;100358.03;5238099;28;20053;-49
2023/08/27 08:14:49;;;;;;;1.55;0.95;;;20.70;99.90;;;21.43;100.00;100357.09;5230622;28;20053;-51
2023/08/27 08:17:23;;;;;;;1.45;0.80;;;20.70;99.90;;;21.45;100.00;100360.59;5233987;28;20135;-50
2023/08/27 08:19:55;;;;;;;0.98;0.90;;;20.80;99.90;;;21.46;100.00;100359.72;5222493;28;20048;-50
2023/08/27 08:22:28;;;;;;;2.47;0.90;;;20.80;99.90;;;21.41;100.00;100359.78;5238683;28;20040;-50
2023/08/27 08:25:07;;;;;;;1.27;0.80;;;20.70;99.90;;;21.37;100.00;100364.25;5247603;28;20059;-50
2023/08/27 08:27:40;;;;;;;1.80;0.80;;;20.70;99.90;;;21.32;100.00;100366.13;5237033;28;20052;-49
2023/08/27 08:30:13;;;;;;;0.82;0.82;;;20.70;99.90;;;21.25;100.00;100377.66;5242635;28;20037;-50
2023/08/27 08:32:47;;;;;;;1.48;0.77;;;20.60;99.90;;;21.22;100.00;100375.06;5241360;28;20062;-49
2023/08/27 08:35:19;;;;;;;1.50;0.90;;;20.60;99.90;;;21.23;100.00;100386.53;5240088;28;20044;-50
2023/08/27 08:37:53;;;;;;;2.33;0.88;;;20.60;99.90;;;21.25;100.00;100385.63;5242684;28;20048;-51
2023/08/27 08:40:25;;;;;;;1.52;0.85;;;20.60;99.90;;;21.30;100.00;100391.75;5241197;28;20139;-49
2023/08/27 08:42:59;;;;;;;2.53;0.93;;;20.70;99.90;;;21.31;100.00;100388.22;5240938;28;20535;-49
2023/08/27 08:45:38;;;;;;;1.90;0.90;;;20.70;99.90;;;21.30;100.00;100391.75;5240101;28;20567;-49
2023/08/27 08:48:13;;;;;;;1.05;0.80;;;20.70;99.90;;;21.24;100.00;100386.53;5241414;28;20432;-49
2023/08/27 08:50:46;;;;;;;1.00;0.90;;;20.70;99.90;;;21.20;100.00;100390.13;5240591;28;20147;-50
2023/08/27 08:53:20;;;;;;;1.05;0.90;;;20.60;99.90;;;21.20;100.00;100376.88;5241834;28;20537;-51
2023/08/27 08:55:57;;;;;;;1.88;1.20;;;20.60;99.90;;;21.12;100.00;100379.63;5241797;28;20053;-49
2023/08/27 08:58:36;;;;;;;1.67;1.08;;;20.60;99.90;;;21.02;100.00;100380.69;5241536;28;20059;-50
2023/08/27 09:01:12;;;;;;;1.52;0.85;;;20.50;99.90;;;20.96;100.00;100382.53;5241148;28;20101;-49
2023/08/27 09:03:47;;;;;;;2.33;1.02;;;20.50;99.90;;;20.92;100.00;100375.53;5240339;28;20040;-49
2023/08/27 09:06:20;;;;;;;1.45;1.02;;;20.50;99.90;;;20.86;100.00;100372.09;5239824;28;20493;-50
2023/08/27 09:08:53;;;;;;;1.40;1.00;;;20.40;99.90;;;20.84;100.00;100376.50;5241107;28;20057;-48
2023/08/27 09:11:27;;;;;;;1.33;0.88;;;20.40;99.90;;;20.85;100.00;100380.91;5242370;28;20048;-50
2023/08/27 09:14:02;;;;;;;;;;;20.40;99.90;;;20.80;100.00;100372.16;5241400;28;20101;-48
2023/08/27 09:16:34;;;;;;;1.20;1.00;;;20.40;99.90;;;20.80;100.00;100363.31;5240488;28;19921;-46
2023/08/27 09:19:11;;;;;;;2.15;1.02;;;20.40;99.90;;;20.76;100.00;100367.78;5241086;28;20424;-48
2023/08/27 09:21:44;;;;;;;2.47;1.23;;;20.30;99.90;;;20.75;100.00;100358.09;5241230;28;20072;-52
2023/08/27 09:24:17;;;;;;;1.45;0.90;;;20.30;99.90;;;20.72;100.00;100352.81;5241022;28;20074;-48
2023/08/27 09:26:49;;;;;;;1.20;1.10;;;20.30;99.90;;;20.72;100.00;100347.53;5240386;28;20513;-46
2023/08/27 09:29:27;;;;;;;1.80;1.10;;;20.20;99.90;;;20.72;100.00;100346.66;5242288;28;20055;-47
2023/08/27 09:32:00;;;;;;;3.55;1.00;;;20.20;99.90;;;20.71;100.00;100345.78;5241372;28;20045;-46
2023/08/27 09:34:39;;;;;;;1.13;1.00;;;20.30;99.90;;;20.70;100.00;100349.34;5240780;28;20040;-51
2023/08/27 09:37:13;;;;;;;0.90;0.80;;;20.20;99.90;;;20.73;100.00;100351.94;5240580;28;20056;-47
2023/08/27 09:39:46;;;;;;;1.25;1.00;;;20.20;99.90;;;20.74;100.00;100344.88;5241413;28;20056;-47
2023/08/27 09:42:19;;;;;;;1.38;1.10;;;20.20;99.90;;;20.78;100.00;100347.44;5241245;28;20562;-51
2023/08/27 09:44:51;;;;;;;1.38;0.82;;;20.30;99.90;;;20.83;100.00;100350.03;5241529;28;20044;-52
2023/08/27 09:47:31;;;;;;;1.27;0.93;;;20.30;99.90;;;20.85;100.00;100349.13;5240737;28;20122;-47
2023/08/27 09:50:08;;;;;;;1.00;0.90;;;20.30;99.90;;;20.85;100.00;100341.16;5240976;28;20075;-51
2023/08/27 09:52:41;;;;;;;2.38;1.10;;;20.30;99.90;;;20.86;100.00;100335.00;5240915;28;20540;-48
2023/08/27 09:55:17;;;;;;;1.05;0.95;;;20.30;99.90;;;20.94;100.00;100328.72;5239395;28;20109;-49
2023/08/27 09:57:53;;;;;;;1.73;0.73;;;20.40;99.90;;;21.09;100.00;100328.47;5240487;28;20060;-48
2023/08/27 10:00:28;;;;;;;1.42;1.08;;;20.50;99.90;;;21.32;100.00;100329.00;5240801;28;20517;-46
2023/08/27 10:03:05;;;;;;;1.92;0.90;;;20.60;99.90;;;21.62;100.00;100337.31;5241906;28;20409;-47
2023/08/27 10:05:38;;;;;;;2.08;1.00;;;20.90;99.90;;;21.98;100.00;100330.47;5239770;28;20151;-48
2023/08/27 10:08:12;;;;;;;1.05;0.95;;;21.10;99.90;;;22.44;100.00;100332.25;5240435;28;20425;-48
2023/08/27 10:10:44;;;;;;;1.52;0.80;;;21.50;99.90;;;22.94;98.19;100335.56;5240874;28;20040;-49
2023/08/27 10:13:21;;;;;;;1.45;1.17;;;21.90;99.90;;;23.25;95.76;100325.09;5240463;28;20049;-49
2023/08/27 10:15:54;;;;;;;1.23;0.80;;;22.30;99.90;;;23.52;95.74;100327.03;5240209;28;20044;-46
2023/08/27 10:18:27;;;;;;;1.35;0.80;;;22.60;99.90;;;23.76;94.13;100311.41;5246109;28;20049;-47
2023/08/27 10:21:02;;;;;;;1.02;0.73;;;22.80;99.90;;;24.02;92.93;100316.88;5245350;28;20056;-47
2023/08/27 10:23:34;;;;;;;1.70;0.98;;;23.10;99.90;;;24.27;89.55;100319.72;5244441;28;20058;-47
2023/08/27 10:26:07;;;;;;;1.70;0.90;;;23.30;99.90;;;24.44;87.62;100313.91;5242940;28;20433;-53
2023/08/27 10:28:41;;;;;;;1.40;0.80;;;23.50;99.40;;;24.60;88.12;100317.88;5244372;28;20037;-52
2023/08/27 10:31:14;;;;;;;1.08;0.80;;;23.70;99.40;;;24.76;88.12;100320.91;5243423;28;20072;-52
2023/08/27 10:33:46;;;;;;;1.77;1.08;;;23.80;99.30;;;24.94;86.77;100322.16;5244019;28;20105;-51